Terminal Aerodrome Forecast
Issued by NWS

Home | Current Version | Previous Version | Text Only | Print | Product List | Glossary On
Versions: 1 2 3 4 5 6 7 8 9 10 11 12 13 14 15 16 17 18 19 20 21 22 23 24 25 26 27 28 29 30 31 32
000
FTUS41 KOKX 181445 AAB
TAFSWF
TAF AMD
KSWF 181445Z 1815/1918 20005KT P6SM SCT060 BKN100
     FM181630 20012G20KT P6SM BKN060
     FM182200 21008KT 6SM -SHRA BR SCT015 BKN030 OVC060
     FM190000 22010KT 2SM -SHRA BR OVC015
     FM190500 23014G24KT 2SM SHRA BR OVC008
     FM191200 24026G35KT 5SM -SHRA BR SCT008 BKN020
     FM191400 29028G37KT P6SM BKN030
     FM191600 29029G38KT P6SM BKN040
      AMD NOT SKED=

USA.gov is the U.S. government's official web portal to all federal, state and local government web resources and services.